createdAt,value
2024-02-05T00:01:41.660Z,12.56
2024-02-05T00:04:31.708Z,12.62
2024-02-05T00:07:21.538Z,12.58
2024-02-05T00:10:11.757Z,12.59
2024-02-05T00:13:01.467Z,12.60
2024-02-05T00:15:52.458Z,12.61
2024-02-05T00:18:42.619Z,12.55
2024-02-05T00:21:32.506Z,12.64
2024-02-05T00:24:21.835Z,12.51
2024-02-05T00:27:11.219Z,12.51
2024-02-05T00:30:00.672Z,12.51
2024-02-05T00:32:51.733Z,12.33
2024-02-05T00:35:41.033Z,12.44
2024-02-05T00:38:30.609Z,12.56
2024-02-05T00:41:19.870Z,12.52
2024-02-05T00:44:09.161Z,12.38
2024-02-05T00:46:58.521Z,12.45
2024-02-05T00:49:49.447Z,12.40
2024-02-05T00:52:39.094Z,12.39
2024-02-05T00:55:29.019Z,12.45
2024-02-05T00:58:18.685Z,12.44
2024-02-05T01:01:08.460Z,12.59
2024-02-05T01:03:58.143Z,12.56
2024-02-05T01:06:49.057Z,12.55
2024-02-05T01:09:38.837Z,12.51
2024-02-05T01:12:29.208Z,12.49
2024-02-05T01:15:18.580Z,12.48
2024-02-05T01:18:08.207Z,12.58
2024-02-05T01:21:00.455Z,12.52
2024-02-05T01:23:51.198Z,12.30
2024-02-05T01:26:40.897Z,12.46
2024-02-05T01:29:30.525Z,12.49
2024-02-05T01:32:19.904Z,12.39
2024-02-05T01:35:10.409Z,12.37
2024-02-05T01:37:59.790Z,12.38
2024-02-05T01:40:50.630Z,12.35
2024-02-05T01:43:40.055Z,12.28
2024-02-05T01:46:33.951Z,12.31
2024-02-05T01:49:25.002Z,12.20
2024-02-05T01:52:21.030Z,12.39
2024-02-05T01:55:13.754Z,12.33
2024-02-05T01:58:05.039Z,12.40
2024-02-05T02:00:57.019Z,12.33
2024-02-05T02:03:49.170Z,12.31
2024-02-05T02:06:40.190Z,12.21
2024-02-05T02:09:29.579Z,12.03
2024-02-05T02:12:19.189Z,12.25
2024-02-05T02:15:10.993Z,12.31
2024-02-05T02:18:04.647Z,12.23
2024-02-05T02:20:55.100Z,12.10
2024-02-05T02:23:46.519Z,12.23
2024-02-05T02:26:36.844Z,12.22
2024-02-05T02:29:26.309Z,12.25
2024-02-05T02:32:28.685Z,12.20
2024-02-05T02:35:30.785Z,12.31
2024-02-05T02:38:24.676Z,12.23
2024-02-05T02:41:21.506Z,12.02
2024-02-05T02:44:11.231Z,12.11
2024-02-05T02:47:05.201Z,12.15
2024-02-05T02:49:56.006Z,12.09
2024-02-05T02:52:45.413Z,12.14
2024-02-05T02:55:34.982Z,12.06
2024-02-05T02:58:25.787Z,11.98
2024-02-05T03:01:15.740Z,12.04
2024-02-05T03:04:05.411Z,12.02
2024-02-05T03:06:54.973Z,12.04
2024-02-05T03:09:44.381Z,12.06
2024-02-05T03:12:33.791Z,12.09
2024-02-05T03:15:24.426Z,12.00
2024-02-05T03:18:14.642Z,11.88
2024-02-05T03:21:04.150Z,11.95
2024-02-05T03:23:53.568Z,11.81
2024-02-05T03:26:42.833Z,11.78
2024-02-05T03:29:32.540Z,11.88
2024-02-05T03:32:23.169Z,11.77
2024-02-05T03:35:13.937Z,11.89
2024-02-05T03:38:03.316Z,11.82
2024-02-05T03:40:52.596Z,11.83
2024-02-05T03:43:43.284Z,11.83
2024-02-05T03:46:32.601Z,11.75
2024-02-05T03:49:23.406Z,11.83
2024-02-05T03:52:12.924Z,11.76
2024-02-05T03:55:02.375Z,11.88
2024-02-05T03:58:01.203Z,11.83
2024-02-05T04:00:51.273Z,11.75
2024-02-05T04:03:41.165Z,11.67
2024-02-05T04:06:32.105Z,11.75
2024-02-05T04:09:21.561Z,12.00
2024-02-05T04:12:10.970Z,12.02
2024-02-05T04:15:00.294Z,12.01
2024-02-05T04:17:49.654Z,11.95
2024-02-05T04:20:39.047Z,11.84
2024-02-05T04:23:29.869Z,11.79
2024-02-05T04:26:19.561Z,11.80
2024-02-05T04:29:15.840Z,11.85
2024-02-05T04:32:06.088Z,11.86
2024-02-05T04:34:55.588Z,11.85
2024-02-05T04:37:45.414Z,11.89
2024-02-05T04:40:36.195Z,12.00
2024-02-05T04:43:25.521Z,11.96
2024-02-05T04:46:14.947Z,11.87
2024-02-05T04:49:04.571Z,11.91
2024-02-05T04:51:53.995Z,11.92
2024-02-05T04:54:43.571Z,11.93
2024-02-05T04:57:34.396Z,11.94
2024-02-05T05:00:24.147Z,11.85
2024-02-05T05:03:13.506Z,11.87
2024-02-05T05:06:02.889Z,11.78
2024-02-05T05:08:52.249Z,11.87
2024-02-05T05:11:41.558Z,11.58
2024-02-05T05:14:32.229Z,11.87
2024-02-05T05:17:21.663Z,11.80
2024-02-05T05:20:13.206Z,11.93
2024-02-05T05:23:02.544Z,11.82
2024-02-05T05:25:58.747Z,11.88
2024-02-05T05:28:49.055Z,11.93
2024-02-05T05:31:39.856Z,11.86
2024-02-05T05:34:29.227Z,11.86
2024-02-05T05:37:18.794Z,11.84
2024-02-05T05:40:11.252Z,11.88
2024-02-05T05:43:00.941Z,11.90
2024-02-05T05:45:50.328Z,11.78
2024-02-05T05:48:41.357Z,11.88
2024-02-05T05:51:30.743Z,11.80
2024-02-05T05:54:21.181Z,11.67
2024-02-05T05:57:10.455Z,11.71
2024-02-05T06:00:00.534Z,11.85
2024-02-05T06:02:50.664Z,11.94
2024-02-05T06:05:41.390Z,11.86
2024-02-05T06:08:30.675Z,11.77
2024-02-05T06:11:19.962Z,11.81
2024-02-05T06:14:09.354Z,11.73
2024-02-05T06:16:58.730Z,11.73
2024-02-05T06:19:48.186Z,11.76
2024-02-05T06:22:39.077Z,11.75
2024-02-05T06:25:28.538Z,11.75
2024-02-05T06:28:18.657Z,11.74
2024-02-05T06:31:08.191Z,11.66
2024-02-05T06:33:57.772Z,11.62
2024-02-05T06:36:47.298Z,11.69
2024-02-05T06:39:38.267Z,11.59
2024-02-05T06:42:27.531Z,11.64
2024-02-05T06:45:17.927Z,11.77
2024-02-05T06:48:08.630Z,11.67
2024-02-05T06:50:58.031Z,11.78
2024-02-05T06:53:47.492Z,11.80
2024-02-05T06:56:38.290Z,11.73
2024-02-05T06:59:27.546Z,11.80
2024-02-05T07:02:20.092Z,11.78
2024-02-05T07:05:11.921Z,11.71
2024-02-05T07:08:01.364Z,11.80
2024-02-05T07:10:50.676Z,11.88
2024-02-05T07:13:41.506Z,11.86
2024-02-05T07:16:30.941Z,11.95
2024-02-05T07:19:20.508Z,11.82
2024-02-05T07:22:10.780Z,11.78
2024-02-05T07:25:00.834Z,11.92
2024-02-05T07:27:50.424Z,11.91
2024-02-05T07:30:41.629Z,11.93
2024-02-05T07:33:31.103Z,11.87
2024-02-05T07:36:20.969Z,11.93
2024-02-05T07:39:11.412Z,11.93
2024-02-05T07:42:00.867Z,11.82
2024-02-05T07:44:50.171Z,11.80
2024-02-05T07:47:41.012Z,11.78
2024-02-05T07:50:30.291Z,11.75
2024-02-05T07:53:19.770Z,11.80
2024-02-05T07:56:11.823Z,11.68
2024-02-05T07:59:01.204Z,11.78
2024-02-05T08:01:50.727Z,11.81
2024-02-05T08:04:42.415Z,11.83
2024-02-05T08:07:31.900Z,11.90
2024-02-05T08:10:21.458Z,11.76
2024-02-05T08:13:10.793Z,11.78
2024-02-05T08:16:00.189Z,11.80
2024-02-05T08:18:50.790Z,11.65
2024-02-05T08:21:41.668Z,11.88
2024-02-05T08:24:31.032Z,11.89
2024-02-05T08:27:20.337Z,11.95
2024-02-05T08:30:11.004Z,11.83
2024-02-05T08:33:00.807Z,11.86
2024-02-05T08:35:50.571Z,11.83
2024-02-05T08:38:42.668Z,12.04
2024-02-05T08:41:32.042Z,11.94
2024-02-05T08:44:23.575Z,12.14
2024-02-05T08:47:14.399Z,12.02
2024-02-05T08:50:04.064Z,12.05
2024-02-05T08:52:53.635Z,12.22
2024-02-05T08:55:44.381Z,12.21
2024-02-05T08:58:33.795Z,12.28
2024-02-05T09:01:23.370Z,12.29
2024-02-05T09:04:12.920Z,12.26
2024-02-05T09:07:02.440Z,12.33
2024-02-05T09:09:51.853Z,12.50
2024-02-05T09:12:42.842Z,12.60
2024-02-05T09:15:32.164Z,12.67
2024-02-05T09:18:23.629Z,12.69
2024-02-05T09:21:13.164Z,12.72
2024-02-05T09:24:02.513Z,12.78
2024-02-05T09:26:52.292Z,12.73
2024-02-05T09:29:44.993Z,12.78
2024-02-05T09:32:34.593Z,12.81
2024-02-05T09:35:24.024Z,12.83
2024-02-05T09:38:13.909Z,12.95
2024-02-05T09:41:08.050Z,13.06
2024-02-05T09:43:58.184Z,12.99
2024-02-05T09:46:51.840Z,12.95
2024-02-05T09:49:41.883Z,13.10
2024-02-05T09:52:32.196Z,13.12
2024-02-05T09:55:23.074Z,13.19
2024-02-05T09:58:13.213Z,13.18
2024-02-05T10:01:03.998Z,13.18
2024-02-05T10:03:55.928Z,13.03
2024-02-05T10:06:51.279Z,12.94
2024-02-05T10:09:42.239Z,13.09
2024-02-05T10:12:36.217Z,13.09
2024-02-05T10:15:25.654Z,13.13
2024-02-05T10:18:15.099Z,13.01
2024-02-05T10:21:06.663Z,13.09
2024-02-05T10:23:56.389Z,13.02
2024-02-05T10:26:45.763Z,13.11
2024-02-05T10:29:35.086Z,13.05
2024-02-05T10:32:24.650Z,13.01
2024-02-05T10:35:19.015Z,12.84
2024-02-05T10:38:13.631Z,12.86
2024-02-05T10:41:03.669Z,12.84
2024-02-05T10:43:53.005Z,12.84
2024-02-05T10:46:42.523Z,12.86
2024-02-05T10:49:32.800Z,12.94
2024-02-05T10:52:23.828Z,12.95
2024-02-05T10:55:15.840Z,13.14
2024-02-05T10:58:06.691Z,13.11
2024-02-05T11:01:01.506Z,13.11
2024-02-05T11:03:56.550Z,13.27
2024-02-05T11:06:50.318Z,13.23
2024-02-05T11:09:41.089Z,13.19
2024-02-05T11:12:34.075Z,13.18
2024-02-05T11:15:23.825Z,13.22
2024-02-05T11:18:17.340Z,13.38
2024-02-05T11:21:09.251Z,13.39
2024-02-05T11:23:59.666Z,13.44
2024-02-05T11:26:49.074Z,13.46
2024-02-05T11:29:45.214Z,13.49
2024-02-05T11:32:36.571Z,13.51
2024-02-05T11:35:31.241Z,13.55
2024-02-05T11:38:23.132Z,13.52
2024-02-05T11:41:12.832Z,13.38
2024-02-05T11:44:07.098Z,13.44
2024-02-05T11:46:57.778Z,13.53
2024-02-05T11:49:47.388Z,13.53
2024-02-05T11:52:40.384Z,13.48
2024-02-05T11:55:30.154Z,13.43
2024-02-05T11:58:19.622Z,13.50
2024-02-05T12:01:11.060Z,13.61
2024-02-05T12:04:02.263Z,13.37
2024-02-05T12:06:52.341Z,13.39
2024-02-05T12:09:41.738Z,13.44
2024-02-05T12:12:31.947Z,13.42
2024-02-05T12:15:23.499Z,13.48
2024-02-05T12:18:12.939Z,13.38
2024-02-05T12:21:04.471Z,13.35
2024-02-05T12:23:54.898Z,13.43
2024-02-05T12:26:44.290Z,13.40
2024-02-05T12:29:34.082Z,13.55
2024-02-05T12:32:27.905Z,13.61
2024-02-05T12:35:22.619Z,13.53
2024-02-05T12:38:13.823Z,13.60
2024-02-05T12:41:03.935Z,13.58
2024-02-05T12:43:53.748Z,13.49
2024-02-05T12:46:43.344Z,13.55
2024-02-05T12:49:33.207Z,13.49
2024-02-05T12:52:23.936Z,13.46
2024-02-05T12:55:15.064Z,13.44
2024-02-05T12:58:04.475Z,13.50
2024-02-05T13:00:54.147Z,13.55
2024-02-05T13:03:43.684Z,13.67
2024-02-05T13:06:33.252Z,13.70
2024-02-05T13:09:22.580Z,13.84
2024-02-05T13:12:14.134Z,13.74
2024-02-05T13:15:04.229Z,13.90
2024-02-05T13:17:54.137Z,13.91
2024-02-05T13:20:44.907Z,13.86
2024-02-05T13:23:34.245Z,13.93
2024-02-05T13:26:23.567Z,13.91
2024-02-05T13:29:14.340Z,13.84
2024-02-05T13:32:03.816Z,13.76
2024-02-05T13:34:53.258Z,13.84
2024-02-05T13:37:42.747Z,13.91
2024-02-05T13:40:33.233Z,13.91
2024-02-05T13:43:22.573Z,13.89
2024-02-05T13:46:13.658Z,13.84
2024-02-05T13:49:03.910Z,13.80
2024-02-05T13:51:53.427Z,13.76
2024-02-05T13:54:42.864Z,13.81
2024-02-05T13:57:32.252Z,13.70
2024-02-05T14:00:22.377Z,13.75
2024-02-05T14:03:13.174Z,13.93
2024-02-05T14:06:02.733Z,13.87
2024-02-05T14:08:52.728Z,13.89
2024-02-05T14:11:41.983Z,13.70
2024-02-05T14:14:37.081Z,13.76
2024-02-05T14:17:26.438Z,13.76
2024-02-05T14:20:17.288Z,13.82
2024-02-05T14:23:06.779Z,13.81
2024-02-05T14:25:56.038Z,13.86
2024-02-05T14:28:45.324Z,13.91
2024-02-05T14:31:34.716Z,13.90
2024-02-05T14:34:25.029Z,13.98
2024-02-05T14:37:15.880Z,13.98
2024-02-05T14:40:06.936Z,13.94
2024-02-05T14:42:56.409Z,14.02
2024-02-05T14:45:46.066Z,13.92
2024-02-05T14:48:35.862Z,13.98
2024-02-05T14:51:25.773Z,14.06
2024-02-05T14:54:16.618Z,13.88
2024-02-05T14:57:06.452Z,14.05
2024-02-05T14:59:56.218Z,14.03
2024-02-05T15:02:45.601Z,14.12
2024-02-05T15:05:35.271Z,13.96
2024-02-05T15:08:24.811Z,14.14
2024-02-05T15:11:15.565Z,14.18
2024-02-05T15:14:04.971Z,14.25
2024-02-05T15:16:54.268Z,14.15
2024-02-05T15:19:45.058Z,14.18
2024-02-05T15:22:35.396Z,14.16
2024-02-05T15:25:25.004Z,14.04
2024-02-05T15:28:15.784Z,14.15
2024-02-05T15:31:05.412Z,14.20
2024-02-05T15:33:54.875Z,14.07
2024-02-05T15:36:44.402Z,14.02
2024-02-05T15:39:33.844Z,14.13
2024-02-05T15:42:23.198Z,14.20
2024-02-05T15:45:18.024Z,14.15
2024-02-05T15:48:08.247Z,14.17
2024-02-05T15:50:58.366Z,13.96
2024-02-05T15:53:47.996Z,14.16
2024-02-05T15:56:42.583Z,14.10
2024-02-05T15:59:32.795Z,14.05
2024-02-05T16:02:23.542Z,14.08
2024-02-05T16:05:13.374Z,14.07
2024-02-05T16:08:02.899Z,13.99
2024-02-05T16:10:52.340Z,14.12
2024-02-05T16:13:41.984Z,14.06
2024-02-05T16:16:31.764Z,14.04
2024-02-05T16:19:22.723Z,13.93
2024-02-05T16:22:12.127Z,13.95
2024-02-05T16:25:01.468Z,13.96
2024-02-05T16:27:51.023Z,14.02
2024-02-05T16:30:40.456Z,14.00
2024-02-05T16:33:29.936Z,13.99
2024-02-05T16:36:20.758Z,13.91
2024-02-05T16:39:11.040Z,13.84
2024-02-05T16:42:00.430Z,13.77
2024-02-05T16:44:49.760Z,13.93
2024-02-05T16:47:39.426Z,13.91
2024-02-05T16:50:28.933Z,13.84
2024-02-05T16:53:19.887Z,13.92
2024-02-05T16:56:11.141Z,13.81
2024-02-05T16:59:00.568Z,13.80
2024-02-05T17:01:50.313Z,13.83
2024-02-05T17:04:39.896Z,13.64
2024-02-05T17:07:29.291Z,13.70
2024-02-05T17:10:20.442Z,13.70
2024-02-05T17:13:09.916Z,13.86
2024-02-05T17:15:59.490Z,13.84
2024-02-05T17:18:49.168Z,13.85
2024-02-05T17:21:43.606Z,13.79
2024-02-05T17:24:36.381Z,13.95
2024-02-05T17:27:28.149Z,13.86
2024-02-05T17:30:17.671Z,13.83
2024-02-05T17:33:07.307Z,13.81
2024-02-05T17:35:56.832Z,13.78
2024-02-05T17:38:46.122Z,13.70
2024-02-05T17:41:35.516Z,13.85
2024-02-05T17:44:26.191Z,13.78
2024-02-05T17:47:15.825Z,13.78
2024-02-05T17:50:06.071Z,13.72
2024-02-05T17:52:57.334Z,13.69
2024-02-05T17:55:46.810Z,13.80
2024-02-05T17:58:36.400Z,13.80
2024-02-05T18:01:27.239Z,13.81
2024-02-05T18:04:16.826Z,13.68
2024-02-05T18:07:06.924Z,13.77
2024-02-05T18:09:56.402Z,13.83
2024-02-05T18:12:45.943Z,13.72
2024-02-05T18:15:35.450Z,13.74
2024-02-05T18:18:26.714Z,13.86
2024-02-05T18:21:16.986Z,13.87
2024-02-05T18:24:08.286Z,13.87
2024-02-05T18:26:59.808Z,13.83
2024-02-05T18:29:49.286Z,13.72
2024-02-05T18:32:38.600Z,13.75
2024-02-05T18:35:29.590Z,13.81
2024-02-05T18:38:19.095Z,13.67
2024-02-05T18:41:10.277Z,13.77
2024-02-05T18:43:59.692Z,13.62
2024-02-05T18:46:49.070Z,13.77
2024-02-05T18:49:38.617Z,13.82
2024-02-05T18:52:29.493Z,13.79
2024-02-05T18:55:18.963Z,13.77
2024-02-05T18:58:08.444Z,13.88
2024-02-05T19:00:58.330Z,13.86
2024-02-05T19:03:47.867Z,13.83
2024-02-05T19:06:37.324Z,13.84
2024-02-05T19:09:28.695Z,13.77
2024-02-05T19:12:18.145Z,13.78
2024-02-05T19:15:08.217Z,13.85
2024-02-05T19:17:57.679Z,13.83
2024-02-05T19:20:47.102Z,13.74
2024-02-05T19:23:36.528Z,13.79
2024-02-05T19:26:27.331Z,13.77
2024-02-05T19:29:20.747Z,13.69
2024-02-05T19:32:10.667Z,13.73
2024-02-05T19:35:00.933Z,13.72
2024-02-05T19:37:51.012Z,13.68
2024-02-05T19:40:40.608Z,13.77
2024-02-05T19:43:31.543Z,13.74
2024-02-05T19:46:21.052Z,13.64
2024-02-05T19:49:10.636Z,13.66
2024-02-05T19:52:00.094Z,13.77
2024-02-05T19:54:49.554Z,13.66
2024-02-05T19:57:40.908Z,13.73
2024-02-05T20:00:31.817Z,13.76
2024-02-05T20:03:21.472Z,13.60
2024-02-05T20:06:11.010Z,13.61
2024-02-05T20:09:01.461Z,13.61
2024-02-05T20:11:50.763Z,13.60
2024-02-05T20:14:40.136Z,13.62
2024-02-05T20:17:30.896Z,13.60
2024-02-05T20:20:20.862Z,13.62
2024-02-05T20:23:10.469Z,13.69
2024-02-05T20:26:00.046Z,13.57
2024-02-05T20:28:49.395Z,13.47
2024-02-05T20:31:39.339Z,13.54
2024-02-05T20:34:31.291Z,13.45
2024-02-05T20:37:21.075Z,13.54
2024-02-05T20:40:11.328Z,13.58
2024-02-05T20:43:01.038Z,13.54
2024-02-05T20:45:51.040Z,13.49
2024-02-05T20:48:40.572Z,13.36
2024-02-05T20:51:31.549Z,13.42
2024-02-05T20:54:20.796Z,13.52
2024-02-05T20:57:10.130Z,13.48
2024-02-05T20:59:59.426Z,13.32
2024-02-05T21:02:48.777Z,13.27
2024-02-05T21:05:38.068Z,13.32
2024-02-05T21:08:29.056Z,13.30
2024-02-05T21:11:18.562Z,13.13
2024-02-05T21:14:07.997Z,13.16
2024-02-05T21:16:59.722Z,13.13
2024-02-05T21:19:49.165Z,13.10
2024-02-05T21:22:38.662Z,13.06
2024-02-05T21:25:29.502Z,13.08
2024-02-05T21:28:19.018Z,12.99
2024-02-05T21:31:08.443Z,12.87
2024-02-05T21:33:57.838Z,13.05
2024-02-05T21:36:48.566Z,13.08
2024-02-05T21:39:38.081Z,12.99
2024-02-05T21:42:28.906Z,13.08
2024-02-05T21:45:18.300Z,13.00
2024-02-05T21:48:11.549Z,12.96
2024-02-05T21:51:01.263Z,13.04
2024-02-05T21:53:50.681Z,12.93
2024-02-05T21:56:40.239Z,12.94
2024-02-05T21:59:31.007Z,12.96
2024-02-05T22:02:20.484Z,12.94
2024-02-05T22:05:10.562Z,12.98
2024-02-05T22:08:00.897Z,13.04
2024-02-05T22:10:50.205Z,12.94
2024-02-05T22:13:39.657Z,12.98
2024-02-05T22:16:30.495Z,13.01
2024-02-05T22:19:19.972Z,12.99
2024-02-05T22:22:10.258Z,12.98
2024-02-05T22:24:59.917Z,13.05
2024-02-05T22:27:49.287Z,13.14
2024-02-05T22:30:38.527Z,13.07
2024-02-05T22:33:35.238Z,13.16
2024-02-05T22:36:27.550Z,13.13
2024-02-05T22:39:16.929Z,13.13
2024-02-05T22:42:06.799Z,13.10
2024-02-05T22:44:56.292Z,13.05
2024-02-05T22:47:45.856Z,13.07
2024-02-05T22:50:36.639Z,13.04
2024-02-05T22:53:26.268Z,13.10
2024-02-05T22:56:15.714Z,13.19
2024-02-05T22:59:05.054Z,13.10
2024-02-05T23:01:54.453Z,13.09
2024-02-05T23:04:43.930Z,13.16
2024-02-05T23:07:35.278Z,13.21
2024-02-05T23:10:25.815Z,13.20
2024-02-05T23:13:15.236Z,13.10
2024-02-05T23:16:05.401Z,13.22
2024-02-05T23:18:54.897Z,13.18
2024-02-05T23:21:44.346Z,13.19
2024-02-05T23:24:35.054Z,13.07
2024-02-05T23:27:24.360Z,13.14
2024-02-05T23:30:14.859Z,13.05
2024-02-05T23:33:04.451Z,13.02
2024-02-05T23:35:54.010Z,12.99
2024-02-05T23:38:43.557Z,13.06
2024-02-05T23:41:36.180Z,13.08
2024-02-05T23:44:25.631Z,12.92
2024-02-05T23:47:15.165Z,13.04
2024-02-05T23:50:04.567Z,12.87
2024-02-05T23:52:54.115Z,12.80
2024-02-05T23:55:43.612Z,12.92
2024-02-05T23:58:35.513Z,12.87
